sensor_id;sensor_type;location;lat;lon;timestamp;temperature;humidity
69393;SHT31;56582;44.624;20.378;2022-12-07T00:01:23;8.39;93.55
69393;SHT31;56582;44.624;20.378;2022-12-07T00:03:51;8.59;93.13
69393;SHT31;56582;44.624;20.378;2022-12-07T00:06:17;8.50;92.93
69393;SHT31;56582;44.624;20.378;2022-12-07T00:08:43;8.44;93.16
69393;SHT31;56582;44.624;20.378;2022-12-07T00:11:14;8.29;93.45
69393;SHT31;56582;44.624;20.378;2022-12-07T00:13:40;8.25;93.58
69393;SHT31;56582;44.624;20.378;2022-12-07T00:16:12;8.26;93.51
69393;SHT31;56582;44.624;20.378;2022-12-07T00:18:38;8.19;93.76
69393;SHT31;56582;44.624;20.378;2022-12-07T00:21:06;8.13;94.00
69393;SHT31;56582;44.624;20.378;2022-12-07T00:23:32;8.22;93.85
69393;SHT31;56582;44.624;20.378;2022-12-07T00:26:10;8.16;93.76
69393;SHT31;56582;44.624;20.378;2022-12-07T00:28:36;8.17;93.89
69393;SHT31;56582;44.624;20.378;2022-12-07T00:31:10;7.98;94.49
69393;SHT31;56582;44.624;20.378;2022-12-07T00:33:36;8.01;94.65
69393;SHT31;56582;44.624;20.378;2022-12-07T00:36:03;8.26;94.24
69393;SHT31;56582;44.624;20.378;2022-12-07T00:38:31;8.07;94.40
69393;SHT31;56582;44.624;20.378;2022-12-07T00:40:58;7.95;94.57
69393;SHT31;56582;44.624;20.378;2022-12-07T00:43:25;7.96;94.70
69393;SHT31;56582;44.624;20.378;2022-12-07T00:45:50;7.92;94.79
69393;SHT31;56582;44.624;20.378;2022-12-07T00:48:16;7.98;94.62
69393;SHT31;56582;44.624;20.378;2022-12-07T00:50:41;8.06;94.35
69393;SHT31;56582;44.624;20.378;2022-12-07T00:53:06;8.07;93.77
69393;SHT31;56582;44.624;20.378;2022-12-07T00:55:35;8.28;93.68
69393;SHT31;56582;44.624;20.378;2022-12-07T00:58:00;8.12;93.86
69393;SHT31;56582;44.624;20.378;2022-12-07T01:00:26;8.07;94.25
69393;SHT31;56582;44.624;20.378;2022-12-07T01:02:52;8.12;93.90
69393;SHT31;56582;44.624;20.378;2022-12-07T01:05:17;7.95;94.22
69393;SHT31;56582;44.624;20.378;2022-12-07T01:07:43;8.05;94.59
69393;SHT31;56582;44.624;20.378;2022-12-07T01:10:09;7.98;94.42
69393;SHT31;56582;44.624;20.378;2022-12-07T01:12:34;7.94;94.30
69393;SHT31;56582;44.624;20.378;2022-12-07T01:15:00;7.96;94.50
69393;SHT31;56582;44.624;20.378;2022-12-07T01:17:25;8.03;94.25
69393;SHT31;56582;44.624;20.378;2022-12-07T01:19:51;7.99;94.44
69393;SHT31;56582;44.624;20.378;2022-12-07T01:22:16;7.99;94.76
69393;SHT31;56582;44.624;20.378;2022-12-07T01:24:41;7.78;94.94
69393;SHT31;56582;44.624;20.378;2022-12-07T01:27:07;7.78;94.98
69393;SHT31;56582;44.624;20.378;2022-12-07T01:29:32;7.82;94.98
69393;SHT31;56582;44.624;20.378;2022-12-07T01:31:58;7.60;95.35
69393;SHT31;56582;44.624;20.378;2022-12-07T01:34:23;7.81;95.05
69393;SHT31;56582;44.624;20.378;2022-12-07T01:36:48;7.77;94.79
69393;SHT31;56582;44.624;20.378;2022-12-07T01:39:14;7.75;94.43
69393;SHT31;56582;44.624;20.378;2022-12-07T01:41:40;7.78;94.70
69393;SHT31;56582;44.624;20.378;2022-12-07T01:46:52;7.70;94.76
69393;SHT31;56582;44.624;20.378;2022-12-07T01:49:24;7.73;94.58
69393;SHT31;56582;44.624;20.378;2022-12-07T01:51:53;7.60;95.14
69393;SHT31;56582;44.624;20.378;2022-12-07T01:54:20;7.65;94.94
69393;SHT31;56582;44.624;20.378;2022-12-07T01:56:50;7.70;94.93
69393;SHT31;56582;44.624;20.378;2022-12-07T01:59:17;7.71;94.72
69393;SHT31;56582;44.624;20.378;2022-12-07T02:01:43;7.67;94.78
69393;SHT31;56582;44.624;20.378;2022-12-07T02:04:10;7.57;94.70
69393;SHT31;56582;44.624;20.378;2022-12-07T02:06:37;7.44;95.17
69393;SHT31;56582;44.624;20.378;2022-12-07T02:09:03;7.50;95.37
69393;SHT31;56582;44.624;20.378;2022-12-07T02:11:29;7.42;95.42
69393;SHT31;56582;44.624;20.378;2022-12-07T02:13:55;7.58;94.73
69393;SHT31;56582;44.624;20.378;2022-12-07T02:24:53;7.43;95.08
69393;SHT31;56582;44.624;20.378;2022-12-07T02:27:29;7.47;95.02
69393;SHT31;56582;44.624;20.378;2022-12-07T02:30:04;7.20;95.03
69393;SHT31;56582;44.624;20.378;2022-12-07T02:32:57;7.28;95.38
69393;SHT31;56582;44.624;20.378;2022-12-07T02:35:30;7.37;95.33
69393;SHT31;56582;44.624;20.378;2022-12-07T02:41:02;7.33;95.64
69393;SHT31;56582;44.624;20.378;2022-12-07T02:44:06;7.38;95.63
69393;SHT31;56582;44.624;20.378;2022-12-07T02:46:36;7.48;95.15
69393;SHT31;56582;44.624;20.378;2022-12-07T02:49:04;7.44;95.18
69393;SHT31;56582;44.624;20.378;2022-12-07T02:51:31;7.37;95.24
69393;SHT31;56582;44.624;20.378;2022-12-07T02:53:57;7.46;95.13
69393;SHT31;56582;44.624;20.378;2022-12-07T03:00:04;7.40;94.59
69393;SHT31;56582;44.624;20.378;2022-12-07T03:16:50;7.00;94.99
69393;SHT31;56582;44.624;20.378;2022-12-07T03:18:57;7.13;95.26
69393;SHT31;56582;44.624;20.378;2022-12-07T03:21:31;6.97;95.26
69393;SHT31;56582;44.624;20.378;2022-12-07T03:23:58;6.96;95.29
69393;SHT31;56582;44.624;20.378;2022-12-07T03:26:31;6.97;95.68
69393;SHT31;56582;44.624;20.378;2022-12-07T03:29:02;6.93;95.39
69393;SHT31;56582;44.624;20.378;2022-12-07T03:31:32;7.02;95.21
69393;SHT31;56582;44.624;20.378;2022-12-07T03:34:11;6.84;95.15
69393;SHT31;56582;44.624;20.378;2022-12-07T03:36:43;6.72;94.97
69393;SHT31;56582;44.624;20.378;2022-12-07T03:39:27;6.67;95.11
69393;SHT31;56582;44.624;20.378;2022-12-07T03:41:54;6.69;95.19
69393;SHT31;56582;44.624;20.378;2022-12-07T03:44:21;6.71;95.38
69393;SHT31;56582;44.624;20.378;2022-12-07T03:47:04;6.52;95.55
69393;SHT31;56582;44.624;20.378;2022-12-07T03:55:13;6.59;95.76
69393;SHT31;56582;44.624;20.378;2022-12-07T03:57:41;6.59;95.64
69393;SHT31;56582;44.624;20.378;2022-12-07T04:00:08;6.52;95.67
69393;SHT31;56582;44.624;20.378;2022-12-07T04:02:35;6.63;95.91
69393;SHT31;56582;44.624;20.378;2022-12-07T04:05:01;6.45;95.80
69393;SHT31;56582;44.624;20.378;2022-12-07T04:07:26;6.47;95.94
69393;SHT31;56582;44.624;20.378;2022-12-07T04:09:52;6.47;95.89
69393;SHT31;56582;44.624;20.378;2022-12-07T04:12:20;6.33;96.08
69393;SHT31;56582;44.624;20.378;2022-12-07T04:14:45;6.30;96.28
69393;SHT31;56582;44.624;20.378;2022-12-07T04:17:11;6.24;96.40
69393;SHT31;56582;44.624;20.378;2022-12-07T04:19:36;6.33;96.35
69393;SHT31;56582;44.624;20.378;2022-12-07T04:22:04;6.48;95.84
69393;SHT31;56582;44.624;20.378;2022-12-07T04:24:30;6.51;95.68
69393;SHT31;56582;44.624;20.378;2022-12-07T04:26:56;6.38;95.69
69393;SHT31;56582;44.624;20.378;2022-12-07T04:29:22;6.28;95.95
69393;SHT31;56582;44.624;20.378;2022-12-07T04:31:48;6.38;95.75
69393;SHT31;56582;44.624;20.378;2022-12-07T04:34:14;6.51;95.41
69393;SHT31;56582;44.624;20.378;2022-12-07T04:36:40;6.41;95.48
69393;SHT31;56582;44.624;20.378;2022-12-07T04:39:11;6.38;95.57
69393;SHT31;56582;44.624;20.378;2022-12-07T04:41:38;6.40;95.58
69393;SHT31;56582;44.624;20.378;2022-12-07T04:44:04;6.41;95.77
69393;SHT31;56582;44.624;20.378;2022-12-07T04:46:32;6.36;95.37
69393;SHT31;56582;44.624;20.378;2022-12-07T04:48:58;6.24;95.61
69393;SHT31;56582;44.624;20.378;2022-12-07T04:51:26;6.65;97.43
69393;SHT31;56582;44.624;20.378;2022-12-07T04:53:53;7.48;99.23
69393;SHT31;56582;44.624;20.378;2022-12-07T04:56:19;7.43;99.57
69393;SHT31;56582;44.624;20.378;2022-12-07T04:58:46;7.07;99.61
69393;SHT31;56582;44.624;20.378;2022-12-07T05:01:12;6.95;99.64
69393;SHT31;56582;44.624;20.378;2022-12-07T05:03:38;6.71;99.31
69393;SHT31;56582;44.624;20.378;2022-12-07T05:06:05;6.42;98.21
69393;SHT31;56582;44.624;20.378;2022-12-07T05:08:32;6.30;97.94
69393;SHT31;56582;44.624;20.378;2022-12-07T05:10:57;6.18;97.11
69393;SHT31;56582;44.624;20.378;2022-12-07T05:13:23;6.16;97.05
69393;SHT31;56582;44.624;20.378;2022-12-07T05:15:48;6.21;96.38
69393;SHT31;56582;44.624;20.378;2022-12-07T05:18:14;6.10;95.57
69393;SHT31;56582;44.624;20.378;2022-12-07T05:20:40;5.97;95.93
69393;SHT31;56582;44.624;20.378;2022-12-07T05:23:06;6.02;95.42
69393;SHT31;56582;44.624;20.378;2022-12-07T05:25:31;5.92;95.66
69393;SHT31;56582;44.624;20.378;2022-12-07T05:27:57;6.02;95.87
69393;SHT31;56582;44.624;20.378;2022-12-07T05:30:24;6.30;97.53
69393;SHT31;56582;44.624;20.378;2022-12-07T05:32:49;6.36;97.18
69393;SHT31;56582;44.624;20.378;2022-12-07T05:35:15;6.37;96.93
69393;SHT31;56582;44.624;20.378;2022-12-07T05:37:41;6.33;95.84
69393;SHT31;56582;44.624;20.378;2022-12-07T05:40:07;6.45;96.02
69393;SHT31;56582;44.624;20.378;2022-12-07T05:42:32;6.51;96.39
69393;SHT31;56582;44.624;20.378;2022-12-07T05:44:58;6.40;95.26
69393;SHT31;56582;44.624;20.378;2022-12-07T05:47:23;6.41;95.02
69393;SHT31;56582;44.624;20.378;2022-12-07T05:49:49;6.71;96.24
69393;SHT31;56582;44.624;20.378;2022-12-07T05:52:15;6.67;94.00
69393;SHT31;56582;44.624;20.378;2022-12-07T05:54:40;6.44;93.87
69393;SHT31;56582;44.624;20.378;2022-12-07T05:57:06;6.30;93.80
69393;SHT31;56582;44.624;20.378;2022-12-07T05:59:31;6.38;93.47
69393;SHT31;56582;44.624;20.378;2022-12-07T06:02:05;6.23;93.14
69393;SHT31;56582;44.624;20.378;2022-12-07T06:04:36;6.36;92.91
69393;SHT31;56582;44.624;20.378;2022-12-07T06:07:03;6.24;93.06
69393;SHT31;56582;44.624;20.378;2022-12-07T06:09:29;6.41;93.23
69393;SHT31;56582;44.624;20.378;2022-12-07T06:11:55;6.34;92.43
69393;SHT31;56582;44.624;20.378;2022-12-07T06:14:40;6.13;93.22
69393;SHT31;56582;44.624;20.378;2022-12-07T06:17:06;6.17;93.55
69393;SHT31;56582;44.624;20.378;2022-12-07T06:19:32;6.06;94.08
69393;SHT31;56582;44.624;20.378;2022-12-07T06:21:58;6.03;94.58
69393;SHT31;56582;44.624;20.378;2022-12-07T06:24:23;6.10;94.49
69393;SHT31;56582;44.624;20.378;2022-12-07T06:26:49;6.10;93.91
69393;SHT31;56582;44.624;20.378;2022-12-07T06:29:18;6.21;93.65
69393;SHT31;56582;44.624;20.378;2022-12-07T06:31:43;6.24;93.21
69393;SHT31;56582;44.624;20.378;2022-12-07T06:34:11;6.26;93.76
69393;SHT31;56582;44.624;20.378;2022-12-07T06:36:37;6.37;92.78
69393;SHT31;56582;44.624;20.378;2022-12-07T06:39:03;6.17;93.38
69393;SHT31;56582;44.624;20.378;2022-12-07T06:41:29;6.23;93.34
69393;SHT31;56582;44.624;20.378;2022-12-07T06:43:54;6.17;93.16
69393;SHT31;56582;44.624;20.378;2022-12-07T06:46:20;6.17;93.81
69393;SHT31;56582;44.624;20.378;2022-12-07T06:48:45;6.36;96.83
69393;SHT31;56582;44.624;20.378;2022-12-07T06:51:11;6.61;94.86
69393;SHT31;56582;44.624;20.378;2022-12-07T06:53:37;6.47;93.87
69393;SHT31;56582;44.624;20.378;2022-12-07T06:56:03;6.31;93.78
69393;SHT31;56582;44.624;20.378;2022-12-07T06:58:29;6.16;93.37
69393;SHT31;56582;44.624;20.378;2022-12-07T07:00:54;6.18;93.03
69393;SHT31;56582;44.624;20.378;2022-12-07T07:03:20;6.34;93.35
69393;SHT31;56582;44.624;20.378;2022-12-07T07:05:45;6.42;93.02
69393;SHT31;56582;44.624;20.378;2022-12-07T07:08:11;6.61;91.41
69393;SHT31;56582;44.624;20.378;2022-12-07T07:10:37;6.55;91.49
69393;SHT31;56582;44.624;20.378;2022-12-07T07:13:03;6.47;92.08
69393;SHT31;56582;44.624;20.378;2022-12-07T07:15:30;6.34;92.86
69393;SHT31;56582;44.624;20.378;2022-12-07T07:17:56;6.38;93.26
69393;SHT31;56582;44.624;20.378;2022-12-07T07:20:22;6.30;93.92
69393;SHT31;56582;44.624;20.378;2022-12-07T07:22:48;6.20;94.09
69393;SHT31;56582;44.624;20.378;2022-12-07T07:25:13;6.26;93.51
69393;SHT31;56582;44.624;20.378;2022-12-07T07:27:39;6.24;94.10
69393;SHT31;56582;44.624;20.378;2022-12-07T07:30:05;6.13;94.20
69393;SHT31;56582;44.624;20.378;2022-12-07T07:32:31;6.03;94.05
69393;SHT31;56582;44.624;20.378;2022-12-07T07:34:56;5.96;94.31
69393;SHT31;56582;44.624;20.378;2022-12-07T07:37:22;5.97;94.78
69393;SHT31;56582;44.624;20.378;2022-12-07T07:39:48;5.87;95.23
69393;SHT31;56582;44.624;20.378;2022-12-07T07:42:14;5.80;95.34
69393;SHT31;56582;44.624;20.378;2022-12-07T07:44:39;5.85;95.38
69393;SHT31;56582;44.624;20.378;2022-12-07T07:47:05;6.02;94.79
69393;SHT31;56582;44.624;20.378;2022-12-07T07:49:30;6.00;95.39
69393;SHT31;56582;44.624;20.378;2022-12-07T07:51:56;6.00;94.83
69393;SHT31;56582;44.624;20.378;2022-12-07T07:54:21;6.06;94.72
69393;SHT31;56582;44.624;20.378;2022-12-07T07:56:46;6.09;94.96
69393;SHT31;56582;44.624;20.378;2022-12-07T07:59:12;6.07;95.02
69393;SHT31;56582;44.624;20.378;2022-12-07T08:01:37;6.07;95.41
69393;SHT31;56582;44.624;20.378;2022-12-07T08:04:03;6.11;95.23
69393;SHT31;56582;44.624;20.378;2022-12-07T08:06:28;6.05;95.08
69393;SHT31;56582;44.624;20.378;2022-12-07T08:08:54;6.17;94.99
69393;SHT31;56582;44.624;20.378;2022-12-07T08:11:19;6.20;95.10
69393;SHT31;56582;44.624;20.378;2022-12-07T08:13:45;6.26;94.77
69393;SHT31;56582;44.624;20.378;2022-12-07T08:16:12;6.45;93.51
69393;SHT31;56582;44.624;20.378;2022-12-07T08:18:39;6.47;93.78
69393;SHT31;56582;44.624;20.378;2022-12-07T08:21:06;6.65;94.21
69393;SHT31;56582;44.624;20.378;2022-12-07T08:23:33;6.74;92.60
69393;SHT31;56582;44.624;20.378;2022-12-07T08:26:03;6.64;92.88
69393;SHT31;56582;44.624;20.378;2022-12-07T08:28:29;6.75;93.16
69393;SHT31;56582;44.624;20.378;2022-12-07T08:31:13;6.64;93.01
69393;SHT31;56582;44.624;20.378;2022-12-07T08:33:39;6.69;93.21
69393;SHT31;56582;44.624;20.378;2022-12-07T08:36:08;6.74;92.25
69393;SHT31;56582;44.624;20.378;2022-12-07T08:38:35;6.75;92.44
69393;SHT31;56582;44.624;20.378;2022-12-07T08:41:00;6.65;93.55
69393;SHT31;56582;44.624;20.378;2022-12-07T08:43:26;6.74;93.42
69393;SHT31;56582;44.624;20.378;2022-12-07T08:46:09;6.72;93.38
69393;SHT31;56582;44.624;20.378;2022-12-07T08:48:37;7.09;93.09
69393;SHT31;56582;44.624;20.378;2022-12-07T08:51:04;6.97;93.00
69393;SHT31;56582;44.624;20.378;2022-12-07T08:53:30;6.92;93.57
69393;SHT31;56582;44.624;20.378;2022-12-07T08:55:57;6.76;94.12
69393;SHT31;56582;44.624;20.378;2022-12-07T08:58:23;6.71;94.07
69393;SHT31;56582;44.624;20.378;2022-12-07T09:00:48;6.74;94.12
69393;SHT31;56582;44.624;20.378;2022-12-07T09:03:14;6.86;94.21
69393;SHT31;56582;44.624;20.378;2022-12-07T09:05:39;6.95;93.04
69393;SHT31;56582;44.624;20.378;2022-12-07T09:08:05;6.75;93.90
69393;SHT31;56582;44.624;20.378;2022-12-07T09:10:31;6.81;93.95
69393;SHT31;56582;44.624;20.378;2022-12-07T09:12:58;7.06;92.72
69393;SHT31;56582;44.624;20.378;2022-12-07T09:15:28;6.85;92.98
69393;SHT31;56582;44.624;20.378;2022-12-07T09:17:53;6.79;92.41
69393;SHT31;56582;44.624;20.378;2022-12-07T09:20:19;6.68;93.83
69393;SHT31;56582;44.624;20.378;2022-12-07T09:22:44;6.69;94.61
69393;SHT31;56582;44.624;20.378;2022-12-07T09:25:10;6.67;94.36
69393;SHT31;56582;44.624;20.378;2022-12-07T09:27:35;6.86;93.28
69393;SHT31;56582;44.624;20.378;2022-12-07T09:30:01;6.84;93.62
69393;SHT31;56582;44.624;20.378;2022-12-07T09:32:26;6.85;92.76
69393;SHT31;56582;44.624;20.378;2022-12-07T09:34:52;6.91;93.32
69393;SHT31;56582;44.624;20.378;2022-12-07T09:37:17;7.02;93.88
69393;SHT31;56582;44.624;20.378;2022-12-07T09:39:43;7.00;93.83
69393;SHT31;56582;44.624;20.378;2022-12-07T09:42:08;7.10;94.13
69393;SHT31;56582;44.624;20.378;2022-12-07T09:44:36;7.07;94.17
69393;SHT31;56582;44.624;20.378;2022-12-07T09:47:02;6.97;93.73
69393;SHT31;56582;44.624;20.378;2022-12-07T09:49:30;6.88;94.18
69393;SHT31;56582;44.624;20.378;2022-12-07T09:52:18;7.05;93.76
69393;SHT31;56582;44.624;20.378;2022-12-07T09:54:48;6.86;93.59
69393;SHT31;56582;44.624;20.378;2022-12-07T09:57:14;6.74;94.14
69393;SHT31;56582;44.624;20.378;2022-12-07T09:59:40;6.82;94.23
69393;SHT31;56582;44.624;20.378;2022-12-07T10:02:42;6.89;94.33
69393;SHT31;56582;44.624;20.378;2022-12-07T10:05:19;6.95;94.76
69393;SHT31;56582;44.624;20.378;2022-12-07T10:07:46;6.91;94.99
69393;SHT31;56582;44.624;20.378;2022-12-07T10:10:25;7.05;95.08
69393;SHT31;56582;44.624;20.378;2022-12-07T10:13:02;7.16;95.13
69393;SHT31;56582;44.624;20.378;2022-12-07T10:15:45;7.40;93.42
69393;SHT31;56582;44.624;20.378;2022-12-07T10:18:31;7.38;92.85
69393;SHT31;56582;44.624;20.378;2022-12-07T10:24:03;7.09;93.37
69393;SHT31;56582;44.624;20.378;2022-12-07T10:26:34;7.20;92.73
69393;SHT31;56582;44.624;20.378;2022-12-07T10:29:13;7.36;93.08
69393;SHT31;56582;44.624;20.378;2022-12-07T10:31:40;7.43;92.72
69393;SHT31;56582;44.624;20.378;2022-12-07T10:34:21;7.64;92.94
69393;SHT31;56582;44.624;20.378;2022-12-07T10:36:49;7.73;93.05
69393;SHT31;56582;44.624;20.378;2022-12-07T10:39:18;7.79;92.61
69393;SHT31;56582;44.624;20.378;2022-12-07T10:41:57;7.75;93.42
69393;SHT31;56582;44.624;20.378;2022-12-07T10:44:27;7.75;92.98
69393;SHT31;56582;44.624;20.378;2022-12-07T11:06:16;7.58;92.99
69393;SHT31;56582;44.624;20.378;2022-12-07T11:11:36;7.51;91.85
69393;SHT31;56582;44.624;20.378;2022-12-07T11:14:28;7.53;93.33
69393;SHT31;56582;44.624;20.378;2022-12-07T11:22:18;7.37;93.14
69393;SHT31;56582;44.624;20.378;2022-12-07T11:27:44;7.57;92.29
69393;SHT31;56582;44.624;20.378;2022-12-07T11:38:28;7.57;92.62
69393;SHT31;56582;44.624;20.378;2022-12-07T11:41:01;7.61;92.71
69393;SHT31;56582;44.624;20.378;2022-12-07T11:44:24;7.55;92.68
69393;SHT31;56582;44.624;20.378;2022-12-07T11:55:29;7.63;93.01
69393;SHT31;56582;44.624;20.378;2022-12-07T12:03:47;7.44;92.80
69393;SHT31;56582;44.624;20.378;2022-12-07T12:06:13;7.40;93.67
69393;SHT31;56582;44.624;20.378;2022-12-07T12:11:34;7.42;94.06
69393;SHT31;56582;44.624;20.378;2022-12-07T12:22:19;7.51;93.55
69393;SHT31;56582;44.624;20.378;2022-12-07T12:24:51;7.57;93.73
69393;SHT31;56582;44.624;20.378;2022-12-07T12:27:25;7.63;92.43
69393;SHT31;56582;44.624;20.378;2022-12-07T12:29:55;7.57;92.37
69393;SHT31;56582;44.624;20.378;2022-12-07T12:32:39;7.68;92.34
69393;SHT31;56582;44.624;20.378;2022-12-07T12:35:40;7.55;92.22
69393;SHT31;56582;44.624;20.378;2022-12-07T12:40:49;7.47;93.31
69393;SHT31;56582;44.624;20.378;2022-12-07T12:43:46;7.51;93.09
69393;SHT31;56582;44.624;20.378;2022-12-07T12:49:34;7.55;93.77
69393;SHT31;56582;44.624;20.378;2022-12-07T12:57:35;7.57;93.67
69393;SHT31;56582;44.624;20.378;2022-12-07T13:00:15;7.58;93.40
69393;SHT31;56582;44.624;20.378;2022-12-07T13:02:52;7.58;92.71
69393;SHT31;56582;44.624;20.378;2022-12-07T13:05:21;7.71;91.86
69393;SHT31;56582;44.624;20.378;2022-12-07T13:07:51;7.91;91.88
69393;SHT31;56582;44.624;20.378;2022-12-07T13:13:03;7.89;91.69
69393;SHT31;56582;44.624;20.378;2022-12-07T13:15:39;7.81;90.60
69393;SHT31;56582;44.624;20.378;2022-12-07T13:20:56;7.73;91.34
69393;SHT31;56582;44.624;20.378;2022-12-07T13:23:36;7.67;91.30
69393;SHT31;56582;44.624;20.378;2022-12-07T13:29:18;7.75;92.03
69393;SHT31;56582;44.624;20.378;2022-12-07T13:31:49;7.78;91.84
69393;SHT31;56582;44.624;20.378;2022-12-07T13:34:38;7.95;91.20
69393;SHT31;56582;44.624;20.378;2022-12-07T13:37:28;7.89;91.25
69393;SHT31;56582;44.624;20.378;2022-12-07T13:39:59;7.96;91.12
69393;SHT31;56582;44.624;20.378;2022-12-07T13:42:33;7.94;91.36
69393;SHT31;56582;44.624;20.378;2022-12-07T13:45:16;7.85;91.18
69393;SHT31;56582;44.624;20.378;2022-12-07T13:47:52;7.89;90.85
69393;SHT31;56582;44.624;20.378;2022-12-07T13:50:29;7.85;90.17
69393;SHT31;56582;44.624;20.378;2022-12-07T13:52:59;7.65;90.19
69393;SHT31;56582;44.624;20.378;2022-12-07T13:55:26;7.82;90.44
69393;SHT31;56582;44.624;20.378;2022-12-07T13:57:53;7.60;90.94
69393;SHT31;56582;44.624;20.378;2022-12-07T14:00:23;7.54;90.99
69393;SHT31;56582;44.624;20.378;2022-12-07T14:03:33;7.37;91.91
69393;SHT31;56582;44.624;20.378;2022-12-07T14:06:10;7.51;91.19
69393;SHT31;56582;44.624;20.378;2022-12-07T14:08:38;7.63;90.48
69393;SHT31;56582;44.624;20.378;2022-12-07T14:11:03;7.81;89.84
69393;SHT31;56582;44.624;20.378;2022-12-07T14:13:32;7.58;89.71
69393;SHT31;56582;44.624;20.378;2022-12-07T14:16:21;7.61;90.14
69393;SHT31;56582;44.624;20.378;2022-12-07T14:18:47;7.30;90.81
69393;SHT31;56582;44.624;20.378;2022-12-07T14:23:39;7.10;91.25
69393;SHT31;56582;44.624;20.378;2022-12-07T14:26:11;7.09;91.62
69393;SHT31;56582;44.624;20.378;2022-12-07T14:28:37;6.96;91.70
69393;SHT31;56582;44.624;20.378;2022-12-07T14:31:07;7.09;91.96
69393;SHT31;56582;44.624;20.378;2022-12-07T14:33:34;7.09;90.95
69393;SHT31;56582;44.624;20.378;2022-12-07T14:36:00;6.99;91.95
69393;SHT31;56582;44.624;20.378;2022-12-07T14:38:25;6.97;91.81
69393;SHT31;56582;44.624;20.378;2022-12-07T14:40:54;6.92;92.01
69393;SHT31;56582;44.624;20.378;2022-12-07T14:43:40;6.96;91.52
69393;SHT31;56582;44.624;20.378;2022-12-07T14:46:06;7.05;91.52
69393;SHT31;56582;44.624;20.378;2022-12-07T14:48:31;6.97;91.56
69393;SHT31;56582;44.624;20.378;2022-12-07T14:50:57;7.17;91.19
69393;SHT31;56582;44.624;20.378;2022-12-07T14:53:29;7.42;89.71
69393;SHT31;56582;44.624;20.378;2022-12-07T14:55:56;7.07;90.59
69393;SHT31;56582;44.624;20.378;2022-12-07T14:58:21;7.09;90.64
69393;SHT31;56582;44.624;20.378;2022-12-07T15:00:47;7.36;89.86
69393;SHT31;56582;44.624;20.378;2022-12-07T15:03:13;7.19;90.15
69393;SHT31;56582;44.624;20.378;2022-12-07T15:05:39;7.12;91.06
69393;SHT31;56582;44.624;20.378;2022-12-07T15:08:05;6.93;92.11
69393;SHT31;56582;44.624;20.378;2022-12-07T15:10:33;7.00;91.98
69393;SHT31;56582;44.624;20.378;2022-12-07T15:12:59;6.67;92.22
69393;SHT31;56582;44.624;20.378;2022-12-07T15:15:45;6.89;91.68
69393;SHT31;56582;44.624;20.378;2022-12-07T15:18:11;6.91;92.27
69393;SHT31;56582;44.624;20.378;2022-12-07T15:20:37;6.85;92.53
69393;SHT31;56582;44.624;20.378;2022-12-07T15:23:02;6.96;91.57
69393;SHT31;56582;44.624;20.378;2022-12-07T15:25:28;6.81;92.49
69393;SHT31;56582;44.624;20.378;2022-12-07T15:27:53;6.95;92.44
69393;SHT31;56582;44.624;20.378;2022-12-07T15:30:18;6.89;92.40
69393;SHT31;56582;44.624;20.378;2022-12-07T15:32:53;6.88;92.72
69393;SHT31;56582;44.624;20.378;2022-12-07T15:35:20;6.84;93.08
69393;SHT31;56582;44.624;20.378;2022-12-07T15:37:46;6.97;92.64
69393;SHT31;56582;44.624;20.378;2022-12-07T15:40:13;7.05;92.68
69393;SHT31;56582;44.624;20.378;2022-12-07T15:42:39;6.75;93.17
69393;SHT31;56582;44.624;20.378;2022-12-07T15:45:07;6.67;94.33
69393;SHT31;56582;44.624;20.378;2022-12-07T15:47:37;6.38;94.46
69393;SHT31;56582;44.624;20.378;2022-12-07T15:50:04;6.64;95.14
69393;SHT31;56582;44.624;20.378;2022-12-07T15:52:31;6.79;94.71
69393;SHT31;56582;44.624;20.378;2022-12-07T15:54:57;6.88;94.23
69393;SHT31;56582;44.624;20.378;2022-12-07T15:57:22;6.88;93.94
69393;SHT31;56582;44.624;20.378;2022-12-07T15:59:48;7.30;92.38
69393;SHT31;56582;44.624;20.378;2022-12-07T16:02:14;6.93;93.05
69393;SHT31;56582;44.624;20.378;2022-12-07T16:04:39;6.71;93.26
69393;SHT31;56582;44.624;20.378;2022-12-07T16:07:05;6.65;93.87
69393;SHT31;56582;44.624;20.378;2022-12-07T16:09:31;6.65;93.26
69393;SHT31;56582;44.624;20.378;2022-12-07T16:11:56;6.84;93.38
69393;SHT31;56582;44.624;20.378;2022-12-07T16:14:22;6.86;92.41
69393;SHT31;56582;44.624;20.378;2022-12-07T16:16:48;7.12;92.16
69393;SHT31;56582;44.624;20.378;2022-12-07T16:19:13;7.00;91.69
69393;SHT31;56582;44.624;20.378;2022-12-07T16:21:39;6.61;92.57
69393;SHT31;56582;44.624;20.378;2022-12-07T16:24:05;6.57;93.24
69393;SHT31;56582;44.624;20.378;2022-12-07T16:26:31;6.76;93.03
69393;SHT31;56582;44.624;20.378;2022-12-07T16:28:57;6.92;92.09
69393;SHT31;56582;44.624;20.378;2022-12-07T16:31:25;6.86;92.08
69393;SHT31;56582;44.624;20.378;2022-12-07T16:33:56;6.69;92.35
69393;SHT31;56582;44.624;20.378;2022-12-07T16:36:22;6.67;92.39
69393;SHT31;56582;44.624;20.378;2022-12-07T16:38:50;6.48;92.50
69393;SHT31;56582;44.624;20.378;2022-12-07T16:41:17;6.20;93.24
69393;SHT31;56582;44.624;20.378;2022-12-07T16:43:43;6.48;91.82
69393;SHT31;56582;44.624;20.378;2022-12-07T16:46:09;6.45;91.88
69393;SHT31;56582;44.624;20.378;2022-12-07T16:48:37;6.55;91.33
69393;SHT31;56582;44.624;20.378;2022-12-07T16:51:08;6.45;91.51
69393;SHT31;56582;44.624;20.378;2022-12-07T16:53:38;6.26;91.97
69393;SHT31;56582;44.624;20.378;2022-12-07T16:56:04;6.52;90.98
69393;SHT31;56582;44.624;20.378;2022-12-07T16:58:30;6.74;90.48
69393;SHT31;56582;44.624;20.378;2022-12-07T17:00:56;6.86;89.64
69393;SHT31;56582;44.624;20.378;2022-12-07T17:03:22;6.64;90.15
69393;SHT31;56582;44.624;20.378;2022-12-07T17:05:47;6.61;91.08
69393;SHT31;56582;44.624;20.378;2022-12-07T17:08:14;6.57;90.65
69393;SHT31;56582;44.624;20.378;2022-12-07T17:10:42;6.49;91.33
69393;SHT31;56582;44.624;20.378;2022-12-07T17:13:08;6.37;91.74
69393;SHT31;56582;44.624;20.378;2022-12-07T17:15:57;6.30;91.60
69393;SHT31;56582;44.624;20.378;2022-12-07T17:18:23;6.38;91.41
69393;SHT31;56582;44.624;20.378;2022-12-07T17:20:48;6.47;90.80
69393;SHT31;56582;44.624;20.378;2022-12-07T17:23:14;6.51;91.53
69393;SHT31;56582;44.624;20.378;2022-12-07T17:25:39;6.69;91.18
69393;SHT31;56582;44.624;20.378;2022-12-07T17:28:05;6.34;91.06
69393;SHT31;56582;44.624;20.378;2022-12-07T17:30:30;6.13;91.63
69393;SHT31;56582;44.624;20.378;2022-12-07T17:32:56;6.36;91.26
69393;SHT31;56582;44.624;20.378;2022-12-07T17:35:21;6.24;91.21
69393;SHT31;56582;44.624;20.378;2022-12-07T17:37:47;6.27;92.17
69393;SHT31;56582;44.624;20.378;2022-12-07T17:40:14;6.26;92.72
69393;SHT31;56582;44.624;20.378;2022-12-07T17:42:40;6.51;92.55
69393;SHT31;56582;44.624;20.378;2022-12-07T17:45:10;6.55;92.00
69393;SHT31;56582;44.624;20.378;2022-12-07T17:47:37;6.68;91.21